Time;durP1;ratioP1;P1;durP2;ratioP2;P2;SDS_P1;SDS_P2;PMS_P1;PMS_P2;Temp;Humidity;BMP_temperature;BMP_pressure;BME280_temperature;BME280_humidity;BME280_pressure;Samples;Min_cycle;Max_cycle;Signal;HPM_P1;HPM_P2
2022/06/06 00:01:19;;;;;;;7.50;4.13;;;24.10;99.90;;;;;;5050217;28;20485;-61
2022/06/06 00:03:48;;;;;;;10.17;4.80;;;24.10;99.90;;;;;;5050700;28;20454;-60
2022/06/06 00:06:17;;;;;;;6.27;4.53;;;23.90;99.90;;;;;;5050651;28;20512;-61
2022/06/06 00:08:45;;;;;;;5.70;3.67;;;23.80;99.90;;;;;;5050192;28;20810;-60
2022/06/06 00:11:12;;;;;;;10.33;4.30;;;23.70;99.90;;;;;;5050395;28;20555;-60
2022/06/06 00:13:43;;;;;;;10.90;3.50;;;23.60;99.90;;;;;;5050489;28;20824;-60
2022/06/06 00:16:10;;;;;;;6.20;4.70;;;23.50;99.90;;;;;;5050445;28;20461;-60
2022/06/06 00:18:38;;;;;;;5.90;3.53;;;23.40;99.90;;;;;;5050355;28;20466;-60
2022/06/06 00:21:08;;;;;;;7.37;4.20;;;23.30;99.90;;;;;;5049845;28;20542;-59
2022/06/06 00:23:36;;;;;;;6.80;3.30;;;23.40;99.90;;;;;;5050214;28;20480;-61
2022/06/06 00:26:07;;;;;;;4.93;3.30;;;23.50;99.90;;;;;;5050299;28;20489;-61
2022/06/06 00:28:34;;;;;;;4.90;3.27;;;23.60;99.90;;;;;;5050288;28;20454;-60
2022/06/06 00:34:48;;;;;;;7.30;4.20;;;23.60;99.90;;;;;;5050044;28;20470;-59
2022/06/06 00:36:35;;;;;;;6.40;3.80;;;23.70;99.90;;;;;;5050168;28;20921;-60
2022/06/06 00:39:04;;;;;;;7.37;4.00;;;23.70;99.90;;;;;;5050025;28;20458;-60
2022/06/06 00:41:31;;;;;;;6.57;3.90;;;23.50;99.90;;;;;;5049914;28;20480;-60
2022/06/06 00:44:05;;;;;;;6.40;4.20;;;23.60;99.90;;;;;;5048857;28;20547;-60
2022/06/06 00:46:35;;;;;;;6.77;3.73;;;23.70;99.90;;;;;;5049935;28;20536;-61
2022/06/06 00:49:03;;;;;;;6.10;4.10;;;23.80;99.90;;;;;;5049645;28;20476;-60
2022/06/06 00:51:32;;;;;;;5.50;3.80;;;23.80;99.90;;;;;;5049367;28;20982;-60
2022/06/06 00:53:59;;;;;;;10.70;4.70;;;23.80;99.90;;;;;;5049880;28;21072;-59
2022/06/06 00:56:30;;;;;;;5.80;3.93;;;23.90;99.90;;;;;;5049419;28;20923;-60
2022/06/06 00:59:03;;;;;;;8.87;3.80;;;23.90;99.90;;;;;;5049561;28;20453;-61
2022/06/06 01:01:35;;;;;;;8.73;3.83;;;23.90;99.90;;;;;;5049485;28;20469;-61
2022/06/06 01:04:04;;;;;;;6.07;4.27;;;23.80;99.90;;;;;;5049536;28;20461;-61
2022/06/06 01:06:36;;;;;;;6.97;3.80;;;23.70;99.90;;;;;;5049393;28;20531;-60
2022/06/06 01:09:03;;;;;;;6.70;3.53;;;23.70;99.90;;;;;;5049553;28;20522;-61
2022/06/06 01:11:36;;;;;;;6.60;4.13;;;23.80;99.90;;;;;;5049352;28;20473;-60
2022/06/06 01:14:04;;;;;;;6.30;3.87;;;23.80;99.90;;;;;;5049534;28;20491;-61
2022/06/06 01:16:42;;;;;;;5.10;3.37;;;23.80;99.90;;;;;;5049509;28;20930;-60
2022/06/06 01:19:42;;;;;;;5.53;3.70;;;23.80;99.90;;;;;;5049536;28;20942;-63
2022/06/06 01:22:39;;;;;;;5.93;3.90;;;23.70;99.90;;;;;;5041426;28;20481;-60
2022/06/06 01:25:24;;;;;;;5.67;4.40;;;23.70;99.90;;;;;;5049499;28;20489;-60
2022/06/06 01:27:59;;;;;;;7.30;4.90;;;23.80;99.90;;;;;;5049353;28;20488;-61
2022/06/06 01:30:33;;;;;;;9.70;4.97;;;23.80;99.90;;;;;;5049301;28;20503;-60
2022/06/06 01:33:02;;;;;;;6.70;4.60;;;23.80;99.90;;;;;;5049315;28;20449;-60
2022/06/06 01:35:31;;;;;;;5.60;4.20;;;23.80;99.90;;;;;;5049300;28;20931;-60
2022/06/06 01:37:59;;;;;;;6.23;4.27;;;23.80;99.90;;;;;;5048867;28;20454;-60
2022/06/06 01:40:32;;;;;;;7.17;3.93;;;23.60;99.90;;;;;;5049153;28;20913;-58
2022/06/06 01:43:03;;;;;;;7.47;4.60;;;23.40;99.90;;;;;;5049177;28;20449;-59
2022/06/06 01:45:36;;;;;;;6.67;4.57;;;23.50;99.90;;;;;;5049086;28;20974;-59
2022/06/06 01:48:08;;;;;;;6.53;5.67;;;23.10;99.90;;;;;;5049378;28;20963;-60
2022/06/06 01:50:37;;;;;;;12.47;8.20;;;22.90;99.90;;;;;;5049229;28;20445;-59
2022/06/06 01:53:07;;;;;;;13.77;8.20;;;22.60;99.90;;;;;;5048960;28;20458;-57
2022/06/06 01:55:37;;;;;;;13.23;8.67;;;22.50;99.90;;;;;;5049995;28;20838;-58
2022/06/06 01:58:07;;;;;;;18.33;10.10;;;22.20;99.90;;;;;;5053107;28;20449;-57
2022/06/06 02:00:37;;;;;;;16.20;9.80;;;21.60;99.90;;;;;;5052696;28;20457;-57
2022/06/06 02:03:05;;;;;;;18.20;8.80;;;21.40;99.90;;;;;;5052856;28;20499;-58
2022/06/06 02:05:34;;;;;;;17.77;9.30;;;21.40;99.90;;;;;;5052558;28;20485;-58
2022/06/06 02:08:01;;;;;;;11.90;8.77;;;21.60;99.90;;;;;;5052808;28;20465;-57
2022/06/06 02:10:28;;;;;;;9.83;7.63;;;21.60;99.90;;;;;;5052809;28;20496;-58
2022/06/06 02:12:55;;;;;;;10.57;8.43;;;21.70;99.90;;;;;;5052798;28;20461;-57
2022/06/06 02:15:24;;;;;;;15.83;8.90;;;21.50;99.90;;;;;;5052394;28;20446;-58
2022/06/06 02:17:54;;;;;;;15.17;8.50;;;21.60;99.90;;;;;;5052426;28;20527;-58
2022/06/06 02:20:23;;;;;;;13.80;7.93;;;21.60;99.90;;;;;;5052569;28;20509;-57
2022/06/06 02:22:50;;;;;;;11.97;6.30;;;21.60;99.90;;;;;;5052540;28;20454;-57
2022/06/06 02:25:18;;;;;;;8.10;5.20;;;21.70;99.90;;;;;;5052451;28;20497;-57
2022/06/06 02:27:45;;;;;;;13.87;5.20;;;21.70;99.90;;;;;;5052661;28;20460;-57
2022/06/06 02:30:14;;;;;;;14.07;5.90;;;21.70;99.90;;;;;;5052487;28;20504;-58
2022/06/06 02:32:42;;;;;;;11.37;6.50;;;21.80;99.90;;;;;;5052296;28;20535;-57
2022/06/06 02:35:13;;;;;;;15.00;7.80;;;21.90;99.90;;;;;;5051922;28;20446;-58
2022/06/06 02:37:41;;;;;;;13.90;7.20;;;21.70;99.90;;;;;;5052277;28;20457;-58
2022/06/06 02:40:11;;;;;;;12.90;7.47;;;21.50;99.90;;;;;;5052433;28;20450;-58
2022/06/06 02:42:38;;;;;;;14.60;8.20;;;21.50;99.90;;;;;;5052136;28;20971;-58
2022/06/06 02:45:07;;;;;;;11.13;7.70;;;21.60;99.90;;;;;;5051544;28;20584;-58
2022/06/06 02:47:34;;;;;;;12.43;8.63;;;21.70;99.90;;;;;;5052135;28;20954;-58
2022/06/06 02:50:01;;;;;;;13.57;8.50;;;21.90;99.90;;;;;;5051564;28;20507;-57
2022/06/06 02:52:29;;;;;;;15.83;7.37;;;21.80;99.90;;;;;;5051879;28;20466;-58
2022/06/06 02:54:56;;;;;;;11.03;7.87;;;21.90;99.90;;;;;;5051887;28;20946;-58
2022/06/06 02:57:23;;;;;;;16.63;7.30;;;22.00;99.90;;;;;;5051731;28;20457;-58
2022/06/06 02:59:52;;;;;;;18.53;8.60;;;21.70;99.90;;;;;;5051332;28;20461;-58
2022/06/06 03:02:19;;;;;;;10.80;8.00;;;21.50;99.90;;;;;;5051873;28;20527;-58
2022/06/06 03:04:46;;;;;;;11.70;8.37;;;21.40;99.90;;;;;;5052037;28;21220;-58
2022/06/06 03:07:24;;;;;;;14.87;7.87;;;21.40;99.90;;;;;;5051175;28;20888;-58
2022/06/06 03:10:17;;;;;;;14.13;8.50;;;21.50;99.90;;;;;;5051386;28;20840;-59
2022/06/06 03:12:59;;;;;;;12.40;8.40;;;21.60;99.90;;;;;;5051364;28;20470;-58
2022/06/06 03:20:46;;;;;;;12.43;8.20;;;21.70;99.90;;;;;;5051618;28;20504;-58
2022/06/06 03:21:32;;;;;;;14.63;7.70;;;22.10;99.90;;;;;;5051420;28;20523;-58
2022/06/06 03:24:16;;;;;;;15.47;8.40;;;22.20;99.90;;;;;;5051414;28;20449;-58
2022/06/06 03:26:55;;;;;;;11.67;8.33;;;22.20;99.90;;;;;;5051405;28;20523;-57
2022/06/06 03:29:38;;;;;;;11.63;7.87;;;22.20;99.90;;;;;;5051280;28;20445;-58
2022/06/06 03:32:13;;;;;;;10.30;7.97;;;22.10;99.90;;;;;;5051197;28;20481;-58
2022/06/06 03:34:46;;;;;;;13.23;7.10;;;22.00;99.90;;;;;;5051280;28;21004;-58
2022/06/06 03:37:21;;;;;;;13.50;8.50;;;22.10;99.90;;;;;;5051210;28;20888;-57
2022/06/06 03:39:56;;;;;;;13.63;7.70;;;22.20;99.90;;;;;;5050956;28;20488;-58
2022/06/06 03:42:33;;;;;;;13.33;7.77;;;22.10;99.90;;;;;;5050914;28;20548;-58
2022/06/06 03:45:12;;;;;;;9.70;7.40;;;21.90;99.90;;;;;;5050226;28;20558;-58
2022/06/06 03:47:50;;;;;;;18.00;8.80;;;21.90;99.90;;;;;;5050761;28;20453;-58
2022/06/06 03:50:27;;;;;;;12.60;8.30;;;21.80;99.90;;;;;;5050966;28;20458;-58
2022/06/06 03:52:59;;;;;;;12.03;8.43;;;21.60;99.90;;;;;;5050919;28;20450;-58
2022/06/06 03:55:42;;;;;;;10.50;7.83;;;21.60;99.90;;;;;;5050838;28;20537;-58
2022/06/06 03:58:15;;;;;;;10.90;8.20;;;21.50;99.90;;;;;;5050547;28;20544;-58
2022/06/06 04:00:44;;;;;;;10.77;8.87;;;21.20;99.90;;;;;;5050691;28;20802;-58
2022/06/06 04:03:12;;;;;;;13.90;9.17;;;21.20;99.90;;;;;;5050675;28;20950;-58
2022/06/06 04:05:40;;;;;;;10.80;8.70;;;21.10;99.90;;;;;;5050689;28;20931;-58
2022/06/06 04:08:08;;;;;;;13.93;9.00;;;21.10;99.90;;;;;;5050344;28;20454;-58
2022/06/06 04:10:42;;;;;;;12.40;8.60;;;21.10;99.90;;;;;;5050424;28;20534;-58
2022/06/06 04:13:25;;;;;;;21.53;9.90;;;21.20;99.90;;;;;;5050568;28;20458;-59
2022/06/06 04:15:59;;;;;;;12.80;9.30;;;21.10;99.90;;;;;;5050367;28;21001;-58
2022/06/06 04:18:41;;;;;;;11.80;8.77;;;21.00;99.90;;;;;;5050378;28;20821;-59
2022/06/06 04:21:18;;;;;;;15.27;10.00;;;21.20;99.90;;;;;;5049946;28;20482;-58
2022/06/06 04:24:02;;;;;;;15.47;10.43;;;21.20;99.90;;;;;;5050348;28;20457;-58
2022/06/06 04:26:37;;;;;;;19.40;10.13;;;21.30;99.90;;;;;;5050164;28;20497;-58
2022/06/06 04:29:12;;;;;;;12.43;10.57;;;21.50;99.90;;;;;;5049738;28;20536;-57
2022/06/06 04:31:45;;;;;;;12.17;10.20;;;21.60;99.90;;;;;;5049869;28;20530;-58
2022/06/06 04:34:17;;;;;;;12.90;10.23;;;21.80;99.90;;;;;;5050239;28;20446;-58
2022/06/06 04:36:52;;;;;;;10.40;9.30;;;21.90;99.90;;;;;;5050091;28;20449;-58
2022/06/06 04:39:24;;;;;;;13.43;8.50;;;22.00;99.90;;;;;;5050136;28;20454;-58
2022/06/06 04:41:59;;;;;;;12.17;9.67;;;22.00;99.90;;;;;;5049814;28;20492;-58
2022/06/06 04:44:37;;;;;;;15.00;10.87;;;22.10;99.90;;;;;;5049696;28;20485;-57
2022/06/06 04:47:13;;;;;;;13.37;8.70;;;22.10;99.90;;;;;;5049888;28;21040;-58
2022/06/06 04:49:42;;;;;;;13.77;8.50;;;22.30;99.90;;;;;;5050093;28;20465;-58
2022/06/06 04:52:12;;;;;;;9.33;7.93;;;22.40;99.90;;;;;;5049537;28;21044;-58
2022/06/06 04:54:43;;;;;;;11.30;9.10;;;22.50;99.90;;;;;;5049972;28;20473;-58
2022/06/06 04:57:12;;;;;;;16.47;9.00;;;22.60;99.90;;;;;;5049796;28;20456;-57
2022/06/06 04:59:41;;;;;;;10.73;8.10;;;22.70;99.90;;;;;;5049929;28;20446;-57
2022/06/06 05:02:09;;;;;;;13.20;8.63;;;22.90;99.90;;;;;;5049659;28;20481;-58
2022/06/06 05:04:36;;;;;;;13.83;8.80;;;23.00;99.90;;;;;;5049246;28;20454;-58
2022/06/06 05:07:15;;;;;;;11.50;8.57;;;23.00;99.90;;;;;;5049273;28;20883;-58
2022/06/06 05:10:13;;;;;;;13.47;8.60;;;23.00;99.90;;;;;;5049397;28;20449;-59
2022/06/06 05:13:12;;;;;;;11.27;8.57;;;22.90;99.90;;;;;;5048962;28;20569;-58
2022/06/06 05:15:51;;;;;;;13.07;9.73;;;22.60;99.90;;;;;;5046177;28;20461;-58
2022/06/06 05:18:34;;;;;;;16.23;10.30;;;22.30;99.90;;;;;;5049521;28;20450;-58
2022/06/06 05:21:13;;;;;;;10.67;9.43;;;22.20;99.90;;;;;;5049474;28;20544;-57
2022/06/06 05:24:10;;;;;;;11.87;9.17;;;22.10;99.90;;;;;;5049370;28;20456;-58
2022/06/06 05:27:00;;;;;;;14.40;9.10;;;22.20;99.90;;;;;;5049478;28;20481;-58
2022/06/06 05:29:58;;;;;;;11.90;8.57;;;22.40;99.90;;;;;;5049716;28;20454;-58
2022/06/06 05:32:59;;;;;;;13.07;8.10;;;22.60;99.90;;;;;;5053308;28;20540;-57
2022/06/06 05:36:03;;;;;;;12.77;9.40;;;22.70;99.90;;;;;;5053442;28;20449;-59
2022/06/06 05:39:05;;;;;;;12.67;9.07;;;22.90;99.90;;;;;;5035619;28;20454;-58
2022/06/06 05:41:47;;;;;;;14.70;10.43;;;22.70;99.90;;;;;;5012438;28;21024;-58
2022/06/06 05:44:24;;;;;;;14.67;8.87;;;22.80;99.90;;;;;;5052782;28;20494;-58
2022/06/06 05:46:59;;;;;;;11.17;8.57;;;22.90;99.90;;;;;;5053073;28;20546;-58
2022/06/06 05:49:50;;;;;;;12.30;8.43;;;23.10;99.90;;;;;;5053056;28;20945;-58
2022/06/06 05:52:36;;;;;;;13.30;8.87;;;23.40;99.90;;;;;;5053029;28;20474;-57
2022/06/06 05:55:19;;;;;;;15.00;8.13;;;23.80;99.90;;;;;;5052818;28;20450;-58
2022/06/06 05:58:15;;;;;;;10.90;8.67;;;24.10;99.90;;;;;;5053160;28;20445;-58
2022/06/06 06:00:56;;;;;;;12.90;8.87;;;24.30;99.90;;;;;;5052955;28;21506;-58
2022/06/06 06:03:46;;;;;;;9.20;6.77;;;24.50;99.90;;;;;;5052683;28;20929;-57
2022/06/06 06:06:22;;;;;;;15.53;7.87;;;24.70;99.90;;;;;;5052336;28;20489;-58
2022/06/06 06:09:03;;;;;;;11.90;6.87;;;25.00;99.90;;;;;;5052843;28;21002;-58
2022/06/06 06:11:53;;;;;;;8.20;6.97;;;25.10;99.90;;;;;;5052661;28;20629;-59
2022/06/06 06:14:34;;;;;;;9.90;6.93;;;25.20;99.90;;;;;;5052734;28;20454;-58
2022/06/06 06:17:03;;;;;;;12.87;7.20;;;25.20;99.90;;;;;;5052427;28;20453;-58
2022/06/06 06:19:37;;;;;;;11.23;8.37;;;25.20;99.90;;;;;;5051857;28;20458;-58
2022/06/06 06:22:08;;;;;;;14.23;8.40;;;25.20;99.90;;;;;;5051963;28;20473;-58
2022/06/06 06:24:38;;;;;;;18.70;9.57;;;25.20;99.90;;;;;;5052179;28;20458;-57
2022/06/06 06:27:06;;;;;;;15.17;10.13;;;25.00;99.90;;;;;;5052101;28;20501;-57
2022/06/06 06:29:33;;;;;;;11.77;8.70;;;24.90;99.90;;;;;;5052029;28;20901;-57
2022/06/06 06:32:26;;;;;;;13.23;9.43;;;25.10;99.90;;;;;;5052323;28;20528;-58
2022/06/06 06:35:12;;;;;;;16.00;8.47;;;25.30;99.90;;;;;;5052121;28;20454;-61
2022/06/06 06:38:02;;;;;;;14.10;10.00;;;25.20;99.90;;;;;;5052643;28;20511;-60
2022/06/06 06:40:44;;;;;;;14.37;9.03;;;25.20;99.90;;;;;;5051585;28;20841;-61
2022/06/06 06:43:17;;;;;;;12.10;9.50;;;25.30;99.90;;;;;;5050452;28;20484;-60
2022/06/06 06:45:46;;;;;;;13.03;10.00;;;25.40;99.90;;;;;;5051951;28;20446;-61
2022/06/06 06:48:18;;;;;;;19.07;9.90;;;25.30;99.90;;;;;;5052084;28;20907;-61
2022/06/06 06:51:00;;;;;;;14.70;9.50;;;25.40;99.90;;;;;;5052049;28;20477;-61
2022/06/06 06:53:49;;;;;;;14.87;10.50;;;25.80;99.90;;;;;;5051569;28;20453;-61
2022/06/06 06:56:32;;;;;;;12.23;10.03;;;26.10;99.90;;;;;;5051691;28;20516;-61
2022/06/06 06:59:15;;;;;;;16.50;11.23;;;26.50;99.90;;;;;;5051803;28;20446;-62
2022/06/06 07:10:47;;;;;;;13.57;10.20;;;26.60;99.90;;;;;;5051595;28;20449;-61
2022/06/06 07:13:40;;;;;;;16.60;11.10;;;26.90;99.90;;;;;;5051103;28;20457;-62
2022/06/06 07:16:17;;;;;;;14.20;9.87;;;27.10;99.90;;;;;;5051535;28;20538;-61
2022/06/06 07:18:46;;;;;;;14.27;9.90;;;27.20;99.90;;;;;;5051484;28;20457;-60
2022/06/06 07:21:16;;;;;;;14.90;10.10;;;27.30;99.90;;;;;;5051243;28;21048;-60
2022/06/06 07:23:46;;;;;;;17.00;12.07;;;27.20;99.90;;;;;;5051428;28;20462;-61
2022/06/06 07:26:15;;;;;;;17.27;11.33;;;27.50;99.90;;;;;;5050801;28;21029;-60
2022/06/06 07:28:42;;;;;;;19.47;17.40;;;27.70;99.90;;;;;;5051146;28;20481;-64
2022/06/06 07:31:21;;;;;;;14.77;13.27;;;27.80;99.90;;;;;;5050786;28;20520;-60
2022/06/06 07:34:05;;;;;;;17.47;12.47;;;27.80;99.90;;;;;;5050970;28;20973;-60
2022/06/06 07:36:46;;;;;;;21.97;12.23;;;28.00;99.90;;;;;;5051079;28;20488;-60
2022/06/06 07:39:25;;;;;;;15.93;12.37;;;28.20;99.90;;;;;;5051140;28;20792;-61
2022/06/06 07:42:08;;;;;;;17.70;11.33;;;28.40;99.90;;;;;;5050843;28;20473;-61
2022/06/06 07:44:55;;;;;;;15.90;10.83;;;28.40;99.90;;;;;;5050367;28;20559;-61
2022/06/06 07:47:31;;;;;;;17.27;11.37;;;28.60;99.90;;;;;;5050554;28;20502;-61
2022/06/06 07:50:03;;;;;;;17.80;11.50;;;28.90;99.90;;;;;;5050813;28;20499;-60
2022/06/06 07:52:39;;;;;;;15.67;9.50;;;29.10;99.90;;;;;;5050646;28;20528;-59
2022/06/06 07:55:14;;;;;;;15.10;11.00;;;29.10;99.90;;;;;;5050424;28;20465;-61
2022/06/06 07:57:51;;;;;;;11.93;10.03;;;29.10;99.90;;;;;;5050462;28;20456;-62
2022/06/06 08:00:21;;;;;;;13.87;9.50;;;28.80;99.90;;;;;;5050575;28;21039;-60
2022/06/06 08:02:55;;;;;;;16.10;10.33;;;28.70;99.90;;;;;;5050471;28;20446;-60
2022/06/06 08:05:55;;;;;;;15.23;12.13;;;28.60;99.90;;;;;;5050585;28;20857;-60
2022/06/06 08:08:37;;;;;;;12.17;8.77;;;28.70;99.90;;;;;;5050175;28;20857;-60
2022/06/06 08:11:11;;;;;;;14.20;8.00;;;28.60;99.90;;;;;;5050219;28;20481;-61
2022/06/06 08:13:48;;;;;;;14.87;8.30;;;28.50;99.90;;;;;;5050399;28;20923;-61
2022/06/06 08:16:25;;;;;;;13.47;6.57;;;28.50;99.90;;;;;;5050204;28;20926;-60
2022/06/06 08:19:13;;;;;;;11.93;6.57;;;28.30;99.90;;;;;;5049819;28;20511;-60
2022/06/06 08:21:43;;;;;;;13.10;6.80;;;28.10;99.90;;;;;;5049687;28;20532;-60
2022/06/06 08:24:15;;;;;;;15.40;5.80;;;28.00;99.90;;;;;;5049782;28;21097;-60
2022/06/06 08:26:45;;;;;;;12.17;5.70;;;27.90;99.90;;;;;;5049726;28;20481;-60
2022/06/06 08:29:14;;;;;;;10.70;6.27;;;28.00;99.90;;;;;;5049902;28;20526;-59
2022/06/06 08:31:41;;;;;;;10.00;5.20;;;28.00;99.90;;;;;;5049860;28;20947;-59
2022/06/06 08:34:08;;;;;;;10.20;5.80;;;28.10;99.90;;;;;;5050087;28;20575;-60
2022/06/06 08:37:01;;;;;;;13.07;5.70;;;28.20;99.90;;;;;;5049931;28;20926;-61
2022/06/06 08:39:41;;;;;;;11.70;6.10;;;28.30;99.90;;;;;;5049491;28;20942;-61
2022/06/06 08:42:32;;;;;;;12.40;5.30;;;28.40;99.90;;;;;;5049660;28;20523;-59
2022/06/06 08:45:23;;;;;;;13.27;5.70;;;28.60;99.90;;;;;;5049442;28;20574;-60
2022/06/06 08:48:02;;;;;;;15.77;5.83;;;28.70;99.90;;;;;;5049602;28;20867;-60
2022/06/06 08:51:00;;;;;;;11.83;5.10;;;28.70;99.90;;;;;;5049097;28;20450;-60
2022/06/06 08:54:15;;;;;;;10.77;5.90;;;28.60;99.90;;;;;;5049702;28;20450;-60
2022/06/06 08:57:20;;;;;;;15.10;6.03;;;28.40;99.90;;;;;;5024648;28;20453;-61
2022/06/06 09:00:16;;;;;;;9.07;5.10;;;28.10;99.90;;;;;;5014909;28;21010;-61
2022/06/06 09:03:35;;;;;;;6.63;4.03;;;27.80;99.90;;;;;;5049172;28;20465;-60
2022/06/06 09:06:31;;;;;;;8.30;5.57;;;27.30;99.90;;;;;;5048749;28;20457;-61
2022/06/06 09:09:31;;;;;;;8.30;4.47;;;26.80;99.90;;;;;;5049432;28;20457;-60
2022/06/06 09:12:33;;;;;;;7.67;3.83;;;26.50;99.90;;;;;;5049238;28;20473;-60
2022/06/06 09:15:42;;;;;;;7.50;4.20;;;26.30;99.90;;;;;;5036265;28;20822;-60
2022/06/06 09:18:51;;;;;;;13.93;5.63;;;26.00;99.90;;;;;;5049279;28;20441;-61
2022/06/06 09:22:01;;;;;;;11.37;5.40;;;25.70;99.90;;;;;;5049311;28;20496;-60
2022/06/06 09:25:09;;;;;;;11.00;6.30;;;25.50;99.90;;;;;;5006740;28;20452;-60
2022/06/06 09:28:25;;;;;;;8.57;5.40;;;25.20;99.90;;;;;;5006687;28;20483;-60
2022/06/06 09:31:11;;;;;;;10.20;5.23;;;24.80;99.90;;;;;;5049406;28;21040;-61
2022/06/06 09:34:08;;;;;;;8.40;4.77;;;24.50;99.90;;;;;;5049071;28;20499;-61
2022/06/06 09:36:47;;;;;;;8.53;5.63;;;24.40;99.90;;;;;;5049070;28;20441;-61
2022/06/06 09:39:33;;;;;;;7.50;4.30;;;24.50;99.90;;;;;;5048956;28;20485;-61
2022/06/06 09:42:08;;;;;;;8.60;5.00;;;24.50;99.90;;;;;;5048983;28;20548;-61
2022/06/06 09:45:09;;;;;;;9.73;5.80;;;24.40;99.90;;;;;;5048822;28;20489;-60
2022/06/06 09:48:15;;;;;;;11.77;6.00;;;23.90;99.90;;;;;;5049157;28;20481;-61
2022/06/06 09:51:27;;;;;;;11.40;6.10;;;23.50;99.90;;;;;;5027981;28;20822;-61
2022/06/06 10:00:27;;;;;;;10.97;4.60;;;24.50;99.90;;;;;;5049069;28;20503;-60
2022/06/06 10:03:27;;;;;;;7.10;3.70;;;25.10;99.90;;;;;;5048888;28;20934;-60
2022/06/06 10:06:19;;;;;;;9.80;4.50;;;25.10;99.90;;;;;;5049086;28;20821;-61
2022/06/06 10:09:25;;;;;;;7.27;3.93;;;25.10;99.90;;;;;;5048969;28;20489;-61
2022/06/06 10:12:17;;;;;;;6.67;4.37;;;25.00;99.90;;;;;;5014529;28;20477;-61
2022/06/06 10:15:01;;;;;;;5.77;3.63;;;25.00;99.90;;;;;;5049022;28;20462;-61
2022/06/06 10:17:40;;;;;;;10.10;3.83;;;25.30;99.90;;;;;;5050899;28;20441;-61
2022/06/06 10:20:21;;;;;;;8.50;4.73;;;25.60;99.90;;;;;;5052394;28;20453;-61
2022/06/06 10:23:24;;;;;;;9.50;4.80;;;25.80;99.90;;;;;;5052089;28;20856;-61
2022/06/06 10:26:27;;;;;;;7.40;3.50;;;25.90;99.90;;;;;;5052440;28;20453;-61
2022/06/06 10:33:28;;;;;;;6.03;3.90;;;25.80;99.90;;;;;;5035872;28;20879;-61
2022/06/06 10:36:11;;;;;;;8.10;3.90;;;25.60;99.90;;;;;;5009534;28;20448;-61
2022/06/06 10:39:07;;;;;;;10.00;4.27;;;25.30;99.90;;;;;;5009545;28;20509;-60
2022/06/06 10:41:55;;;;;;;10.10;7.30;;;24.90;99.90;;;;;;5041385;28;20466;-61
2022/06/06 10:44:43;;;;;;;8.47;4.80;;;24.90;99.90;;;;;;5051732;28;20493;-60
2022/06/06 10:47:24;;;;;;;6.87;4.80;;;24.90;99.90;;;;;;5051956;28;20520;-61
2022/06/06 10:49:59;;;;;;;9.90;4.80;;;24.80;99.90;;;;;;5051668;28;20462;-61
2022/06/06 10:52:58;;;;;;;9.57;4.33;;;24.70;99.90;;;;;;5051883;28;20465;-60
2022/06/06 10:56:06;;;;;;;5.90;3.97;;;24.60;99.90;;;;;;5051744;28;20454;-60
2022/06/06 10:59:22;;;;;;;7.80;3.70;;;24.50;99.90;;;;;;5052245;28;20930;-60
2022/06/06 11:02:23;;;;;;;6.73;4.30;;;24.50;99.90;;;;;;5051586;28;20466;-61
2022/06/06 11:05:29;;;;;;;8.70;5.23;;;24.40;99.90;;;;;;5051763;28;20930;-60
2022/06/06 11:08:29;;;;;;;11.30;4.10;;;24.30;99.90;;;;;;5051531;28;20489;-60
2022/06/06 11:11:35;;;;;;;5.20;4.03;;;24.30;99.90;;;;;;5043948;28;20485;-61
2022/06/06 11:14:07;;;;;;;7.93;4.30;;;24.30;99.90;;;;;;5051406;28;20441;-61
2022/06/06 11:16:59;;;;;;;6.50;4.40;;;24.30;99.90;;;;;;5051307;28;20864;-60
2022/06/06 11:19:52;;;;;;;7.17;4.50;;;24.40;99.90;;;;;;5051662;28;20446;-61
2022/06/06 11:22:27;;;;;;;5.80;4.10;;;24.60;99.90;;;;;;5049197;28;20548;-60
2022/06/06 11:25:10;;;;;;;7.90;4.50;;;24.60;99.90;;;;;;5051242;28;20842;-61
2022/06/06 11:28:02;;;;;;;7.73;4.20;;;24.50;99.90;;;;;;5051090;28;21001;-61
2022/06/06 11:31:01;;;;;;;6.60;4.43;;;24.60;99.90;;;;;;5050951;28;20949;-60
2022/06/06 11:34:08;;;;;;;8.70;4.70;;;24.80;99.90;;;;;;5051123;28;20458;-60
2022/06/06 11:37:06;;;;;;;6.33;4.70;;;24.80;99.90;;;;;;5050804;28;20460;-61
2022/06/06 11:39:54;;;;;;;6.57;4.57;;;24.90;99.90;;;;;;5050743;28;20468;-61
2022/06/06 11:42:32;;;;;;;7.53;4.60;;;24.90;99.90;;;;;;5051001;28;20478;-61
2022/06/06 11:45:30;;;;;;;8.20;4.50;;;25.00;99.90;;;;;;5050313;28;20485;-61
2022/06/06 11:48:26;;;;;;;8.13;5.13;;;25.00;99.90;;;;;;5050825;28;20486;-61
2022/06/06 11:51:24;;;;;;;6.43;4.43;;;25.10;99.90;;;;;;5050802;28;20478;-61
2022/06/06 11:54:30;;;;;;;8.83;4.60;;;25.20;99.90;;;;;;5042262;28;20507;-61
2022/06/06 11:57:38;;;;;;;6.03;5.00;;;25.30;99.90;;;;;;5030674;28;20472;-61
2022/06/06 12:00:13;;;;;;;9.40;4.33;;;25.20;99.90;;;;;;5039202;28;20450;-61
2022/06/06 12:03:29;;;;;;;8.67;4.83;;;25.10;99.90;;;;;;5050671;28;20523;-60
2022/06/06 12:06:33;;;;;;;7.10;4.83;;;25.10;99.90;;;;;;5050274;28;20937;-60
2022/06/06 12:09:18;;;;;;;8.10;5.10;;;25.10;99.90;;;;;;5050451;28;20482;-60
2022/06/06 12:12:14;;;;;;;6.20;4.50;;;25.20;99.90;;;;;;5050259;28;20505;-60
2022/06/06 12:15:05;;;;;;;7.33;5.00;;;25.10;99.90;;;;;;5050254;28;20457;-60
2022/06/06 12:17:46;;;;;;;9.90;5.20;;;25.10;99.90;;;;;;5050324;28;20927;-61
2022/06/06 12:20:48;;;;;;;7.07;4.67;;;25.20;99.90;;;;;;5050385;28;20814;-60
2022/06/06 12:23:23;;;;;;;5.80;4.50;;;25.20;99.90;;;;;;5041131;28;20449;-60
2022/06/06 12:26:00;;;;;;;7.00;5.40;;;25.20;99.90;;;;;;5050158;28;20495;-60
2022/06/06 12:29:05;;;;;;;6.10;4.87;;;25.10;99.90;;;;;;5049422;28;20489;-61
2022/06/06 12:31:47;;;;;;;7.50;5.37;;;25.20;99.90;;;;;;5050006;28;20865;-61
2022/06/06 12:34:18;;;;;;;7.83;4.93;;;25.20;99.90;;;;;;5049898;28;20450;-61
2022/06/06 12:36:54;;;;;;;7.13;5.07;;;25.20;99.90;;;;;;5050054;28;20443;-61
2022/06/06 12:39:32;;;;;;;7.60;4.87;;;25.30;99.90;;;;;;5049593;28;20450;-61
2022/06/06 12:42:11;;;;;;;6.53;4.77;;;25.30;99.90;;;;;;5049467;28;20473;-60
2022/06/06 12:45:07;;;;;;;5.83;4.50;;;25.40;99.90;;;;;;5049401;28;20489;-61
2022/06/06 12:47:54;;;;;;;6.00;4.70;;;25.40;99.90;;;;;;5049512;28;20503;-61
2022/06/06 12:50:32;;;;;;;8.30;5.40;;;25.30;99.90;;;;;;5049898;28;20545;-60
2022/06/06 12:53:24;;;;;;;8.70;5.70;;;25.30;99.90;;;;;;5049642;28;20523;-61
2022/06/06 12:59:13;;;;;;;6.80;5.43;;;25.40;99.90;;;;;;5033716;28;20820;-61
2022/06/06 13:01:50;;;;;;;7.77;5.07;;;25.40;99.90;;;;;;5049469;28;20497;-61
2022/06/06 13:04:58;;;;;;;7.43;5.37;;;25.50;99.90;;;;;;5049519;28;20554;-61
2022/06/06 13:07:39;;;;;;;8.00;5.13;;;25.50;99.90;;;;;;5049266;28;20461;-61
2022/06/06 13:10:23;;;;;;;8.43;4.90;;;25.40;99.90;;;;;;5049652;28;20454;-62
2022/06/06 13:13:19;;;;;;;9.30;5.20;;;25.40;99.90;;;;;;5049284;28;20455;-61
2022/06/06 13:15:58;;;;;;;7.00;4.30;;;25.10;99.90;;;;;;5011773;28;20496;-60
2022/06/06 13:18:43;;;;;;;6.83;4.27;;;24.90;99.90;;;;;;5049313;28;20441;-61
2022/06/06 13:21:19;;;;;;;7.00;5.20;;;24.90;99.90;;;;;;5049215;28;20895;-60
2022/06/06 13:24:01;;;;;;;6.47;4.03;;;24.90;99.90;;;;;;5049460;28;20809;-60
2022/06/06 13:26:46;;;;;;;6.43;4.17;;;24.80;99.90;;;;;;5049626;28;20999;-60
2022/06/06 13:29:26;;;;;;;5.83;4.03;;;24.80;99.90;;;;;;5049205;28;20493;-70
2022/06/06 13:32:07;;;;;;;8.30;4.43;;;24.80;99.90;;;;;;5049236;28;20509;-60
2022/06/06 13:34:47;;;;;;;6.30;4.30;;;24.70;99.90;;;;;;5049606;28;20450;-60
2022/06/06 13:37:21;;;;;;;10.43;5.97;;;24.80;99.90;;;;;;5049428;28;20449;-61
2022/06/06 13:40:03;;;;;;;10.17;3.97;;;24.50;99.90;;;;;;5048872;28;20453;-59
2022/06/06 13:42:48;;;;;;;8.60;4.17;;;24.40;99.90;;;;;;5049174;28;20568;-59
2022/06/06 13:45:26;;;;;;;5.87;4.13;;;24.40;99.90;;;;;;5049141;28;20545;-58
2022/06/06 13:48:29;;;;;;;5.97;4.43;;;24.30;99.90;;;;;;5048836;28;20460;-58
2022/06/06 13:51:11;;;;;;;11.70;4.60;;;24.30;99.90;;;;;;5048679;28;20966;-59
2022/06/06 13:53:58;;;;;;;7.30;4.80;;;24.50;99.90;;;;;;5053171;28;20449;-57
2022/06/06 13:56:50;;;;;;;7.33;5.10;;;24.60;99.90;;;;;;5052871;28;20445;-57
2022/06/06 13:59:43;;;;;;;7.80;4.63;;;24.60;99.90;;;;;;5053181;28;20449;-58
2022/06/06 14:02:26;;;;;;;8.60;4.67;;;24.60;99.90;;;;;;5052511;28;20566;-59
2022/06/06 14:05:14;;;;;;;7.30;4.97;;;24.50;99.90;;;;;;5052714;28;20457;-56
2022/06/06 14:07:58;;;;;;;7.93;4.93;;;24.70;99.90;;;;;;5052847;28;20442;-58
2022/06/06 14:10:37;;;;;;;7.10;4.97;;;24.60;99.90;;;;;;5052741;28;20450;-58
2022/06/06 14:13:14;;;;;;;7.40;5.47;;;24.70;99.90;;;;;;5052762;28;20507;-57
2022/06/06 14:15:44;;;;;;;6.00;4.80;;;24.90;99.90;;;;;;5052526;28;20449;-58
2022/06/06 14:18:15;;;;;;;9.60;5.50;;;25.10;99.90;;;;;;5052936;28;21213;-58
2022/06/06 14:20:45;;;;;;;6.50;5.77;;;25.20;99.90;;;;;;5052779;28;20473;-58